sensor_id;sensor_type;location;lat;lon;timestamp;P1;durP1;ratioP1;P2;durP2;ratioP2
79592;SDS011;69074;45.164;9.704;2024-01-27T00:01:15;56.2;;;47.6;;
79592;SDS011;69074;45.164;9.704;2024-01-27T00:03:40;56.2;;;47.6;;
79592;SDS011;69074;45.164;9.704;2024-01-27T00:06:05;55.3;;;48.3;;
79592;SDS011;69074;45.164;9.704;2024-01-27T00:08:30;55.3;;;48.3;;
79592;SDS011;69074;45.164;9.704;2024-01-27T00:10:55;55.3;;;48.3;;
79592;SDS011;69074;45.164;9.704;2024-01-27T00:13:20;55.3;;;48.3;;
79592;SDS011;69074;45.164;9.704;2024-01-27T00:15:45;55.3;;;48.3;;
79592;SDS011;69074;45.164;9.704;2024-01-27T00:18:10;55.3;;;48.3;;
79592;SDS011;69074;45.164;9.704;2024-01-27T00:20:35;61.3;;;51.1;;
79592;SDS011;69074;45.164;9.704;2024-01-27T00:23:00;61.3;;;51.1;;
79592;SDS011;69074;45.164;9.704;2024-01-27T00:25:25;61.3;;;51.1;;
79592;SDS011;69074;45.164;9.704;2024-01-27T00:27:50;61.3;;;51.1;;
79592;SDS011;69074;45.164;9.704;2024-01-27T00:30:15;61.3;;;51.1;;
79592;SDS011;69074;45.164;9.704;2024-01-27T00:32:40;61.3;;;51.1;;
79592;SDS011;69074;45.164;9.704;2024-01-27T00:35:05;59.1;;;51.2;;
79592;SDS011;69074;45.164;9.704;2024-01-27T00:37:30;59.1;;;51.2;;
79592;SDS011;69074;45.164;9.704;2024-01-27T00:39:55;59.1;;;51.2;;
79592;SDS011;69074;45.164;9.704;2024-01-27T00:42:20;59.1;;;51.2;;
79592;SDS011;69074;45.164;9.704;2024-01-27T00:44:45;59.1;;;51.2;;
79592;SDS011;69074;45.164;9.704;2024-01-27T00:47:10;59.1;;;51.2;;
79592;SDS011;69074;45.164;9.704;2024-01-27T00:49:35;59.1;;;51.2;;
79592;SDS011;69074;45.164;9.704;2024-01-27T00:52:00;59.3;;;50.9;;
79592;SDS011;69074;45.164;9.704;2024-01-27T00:54:25;59.3;;;50.9;;
79592;SDS011;69074;45.164;9.704;2024-01-27T00:56:50;59.3;;;50.9;;
79592;SDS011;69074;45.164;9.704;2024-01-27T00:59:15;59.3;;;50.9;;
79592;SDS011;69074;45.164;9.704;2024-01-27T01:01:40;59.3;;;50.9;;
79592;SDS011;69074;45.164;9.704;2024-01-27T01:04:06;59.3;;;50.9;;
79592;SDS011;69074;45.164;9.704;2024-01-27T01:06:30;57.0;;;48.8;;
79592;SDS011;69074;45.164;9.704;2024-01-27T01:08:55;57.0;;;48.8;;
79592;SDS011;69074;45.164;9.704;2024-01-27T01:11:20;57.0;;;48.8;;
79592;SDS011;69074;45.164;9.704;2024-01-27T01:13:45;57.0;;;48.8;;
79592;SDS011;69074;45.164;9.704;2024-01-27T01:16:10;57.0;;;48.8;;
79592;SDS011;69074;45.164;9.704;2024-01-27T01:18:35;57.0;;;48.8;;
79592;SDS011;69074;45.164;9.704;2024-01-27T01:21:00;50.1;;;44.1;;
79592;SDS011;69074;45.164;9.704;2024-01-27T01:23:25;50.1;;;44.1;;
79592;SDS011;69074;45.164;9.704;2024-01-27T01:25:50;50.1;;;44.1;;
79592;SDS011;69074;45.164;9.704;2024-01-27T01:28:15;50.1;;;44.1;;
79592;SDS011;69074;45.164;9.704;2024-01-27T01:30:40;50.1;;;44.1;;
79592;SDS011;69074;45.164;9.704;2024-01-27T01:33:05;50.1;;;44.1;;
79592;SDS011;69074;45.164;9.704;2024-01-27T01:35:30;46.6;;;41.1;;
79592;SDS011;69074;45.164;9.704;2024-01-27T01:37:55;46.6;;;41.1;;
79592;SDS011;69074;45.164;9.704;2024-01-27T01:40:20;46.6;;;41.1;;
79592;SDS011;69074;45.164;9.704;2024-01-27T01:42:49;46.6;;;41.1;;
79592;SDS011;69074;45.164;9.704;2024-01-27T01:45:10;46.6;;;41.1;;
79592;SDS011;69074;45.164;9.704;2024-01-27T01:47:35;46.6;;;41.1;;
79592;SDS011;69074;45.164;9.704;2024-01-27T01:50:00;44.9;;;39.7;;
79592;SDS011;69074;45.164;9.704;2024-01-27T01:52:25;44.9;;;39.7;;
79592;SDS011;69074;45.164;9.704;2024-01-27T01:54:50;44.9;;;39.7;;
79592;SDS011;69074;45.164;9.704;2024-01-27T01:57:15;44.9;;;39.7;;
79592;SDS011;69074;45.164;9.704;2024-01-27T01:59:40;44.9;;;39.7;;
79592;SDS011;69074;45.164;9.704;2024-01-27T02:02:05;44.9;;;39.7;;
79592;SDS011;69074;45.164;9.704;2024-01-27T02:04:38;44.9;;;39.7;;
79592;SDS011;69074;45.164;9.704;2024-01-27T02:06:55;41.6;;;36.2;;
79592;SDS011;69074;45.164;9.704;2024-01-27T02:09:20;41.6;;;36.2;;
79592;SDS011;69074;45.164;9.704;2024-01-27T02:11:45;41.6;;;36.2;;
79592;SDS011;69074;45.164;9.704;2024-01-27T02:14:10;41.6;;;36.2;;
79592;SDS011;69074;45.164;9.704;2024-01-27T02:16:35;41.6;;;36.2;;
79592;SDS011;69074;45.164;9.704;2024-01-27T02:19:00;41.6;;;36.2;;
79592;SDS011;69074;45.164;9.704;2024-01-27T02:21:25;39.0;;;34.6;;
79592;SDS011;69074;45.164;9.704;2024-01-27T02:23:50;39.0;;;34.6;;
79592;SDS011;69074;45.164;9.704;2024-01-27T02:26:15;39.0;;;34.6;;
79592;SDS011;69074;45.164;9.704;2024-01-27T02:28:40;39.0;;;34.6;;
79592;SDS011;69074;45.164;9.704;2024-01-27T02:31:05;39.0;;;34.6;;
79592;SDS011;69074;45.164;9.704;2024-01-27T02:33:30;39.0;;;34.6;;
79592;SDS011;69074;45.164;9.704;2024-01-27T02:35:55;36.5;;;32.5;;
79592;SDS011;69074;45.164;9.704;2024-01-27T02:38:20;36.5;;;32.5;;
79592;SDS011;69074;45.164;9.704;2024-01-27T02:40:45;36.5;;;32.5;;
79592;SDS011;69074;45.164;9.704;2024-01-27T02:43:10;36.5;;;32.5;;
79592;SDS011;69074;45.164;9.704;2024-01-27T02:45:35;36.5;;;32.5;;
79592;SDS011;69074;45.164;9.704;2024-01-27T02:48:00;36.5;;;32.5;;
79592;SDS011;69074;45.164;9.704;2024-01-27T02:50:25;34.6;;;30.8;;
79592;SDS011;69074;45.164;9.704;2024-01-27T02:52:50;34.6;;;30.8;;
79592;SDS011;69074;45.164;9.704;2024-01-27T02:55:15;34.6;;;30.8;;
79592;SDS011;69074;45.164;9.704;2024-01-27T02:57:40;34.6;;;30.8;;
79592;SDS011;69074;45.164;9.704;2024-01-27T03:00:06;34.6;;;30.8;;
79592;SDS011;69074;45.164;9.704;2024-01-27T03:02:30;34.6;;;30.8;;
79592;SDS011;69074;45.164;9.704;2024-01-27T03:04:55;34.6;;;30.8;;
79592;SDS011;69074;45.164;9.704;2024-01-27T03:07:20;34.5;;;30.6;;
79592;SDS011;69074;45.164;9.704;2024-01-27T03:09:45;34.5;;;30.6;;
79592;SDS011;69074;45.164;9.704;2024-01-27T03:12:10;34.5;;;30.6;;
79592;SDS011;69074;45.164;9.704;2024-01-27T03:14:35;34.5;;;30.6;;
79592;SDS011;69074;45.164;9.704;2024-01-27T03:17:00;34.5;;;30.6;;
79592;SDS011;69074;45.164;9.704;2024-01-27T03:19:25;34.5;;;30.6;;
79592;SDS011;69074;45.164;9.704;2024-01-27T03:21:50;30.4;;;27.2;;
79592;SDS011;69074;45.164;9.704;2024-01-27T03:24:15;30.4;;;27.2;;
79592;SDS011;69074;45.164;9.704;2024-01-27T03:26:40;30.4;;;27.2;;
79592;SDS011;69074;45.164;9.704;2024-01-27T03:29:05;30.4;;;27.2;;
79592;SDS011;69074;45.164;9.704;2024-01-27T03:31:30;30.4;;;27.2;;
79592;SDS011;69074;45.164;9.704;2024-01-27T03:33:55;30.4;;;27.2;;
79592;SDS011;69074;45.164;9.704;2024-01-27T03:36:20;29.1;;;26.0;;
79592;SDS011;69074;45.164;9.704;2024-01-27T03:38:45;29.1;;;26.0;;
79592;SDS011;69074;45.164;9.704;2024-01-27T03:41:10;29.1;;;26.0;;
79592;SDS011;69074;45.164;9.704;2024-01-27T03:43:35;29.1;;;26.0;;
79592;SDS011;69074;45.164;9.704;2024-01-27T03:46:00;29.1;;;26.0;;
79592;SDS011;69074;45.164;9.704;2024-01-27T03:48:25;29.1;;;26.0;;
79592;SDS011;69074;45.164;9.704;2024-01-27T03:50:50;27.4;;;24.5;;
79592;SDS011;69074;45.164;9.704;2024-01-27T03:53:15;27.4;;;24.5;;
79592;SDS011;69074;45.164;9.704;2024-01-27T03:55:40;27.4;;;24.5;;
79592;SDS011;69074;45.164;9.704;2024-01-27T03:58:05;27.4;;;24.5;;
79592;SDS011;69074;45.164;9.704;2024-01-27T04:00:31;27.4;;;24.5;;
79592;SDS011;69074;45.164;9.704;2024-01-27T04:02:55;27.4;;;24.5;;
79592;SDS011;69074;45.164;9.704;2024-01-27T04:05:20;26.2;;;23.4;;
79592;SDS011;69074;45.164;9.704;2024-01-27T04:07:45;26.2;;;23.4;;
79592;SDS011;69074;45.164;9.704;2024-01-27T04:10:10;26.2;;;23.4;;
79592;SDS011;69074;45.164;9.704;2024-01-27T04:12:35;26.2;;;23.4;;
79592;SDS011;69074;45.164;9.704;2024-01-27T04:15:00;26.2;;;23.4;;
79592;SDS011;69074;45.164;9.704;2024-01-27T04:17:25;26.2;;;23.4;;
79592;SDS011;69074;45.164;9.704;2024-01-27T04:19:50;26.2;;;23.4;;
79592;SDS011;69074;45.164;9.704;2024-01-27T04:22:15;26.3;;;23.5;;
79592;SDS011;69074;45.164;9.704;2024-01-27T04:24:40;26.3;;;23.5;;
79592;SDS011;69074;45.164;9.704;2024-01-27T04:27:05;26.3;;;23.5;;
79592;SDS011;69074;45.164;9.704;2024-01-27T04:29:30;26.3;;;23.5;;
79592;SDS011;69074;45.164;9.704;2024-01-27T04:31:55;26.3;;;23.5;;
79592;SDS011;69074;45.164;9.704;2024-01-27T04:34:21;26.3;;;23.5;;
79592;SDS011;69074;45.164;9.704;2024-01-27T04:36:45;23.6;;;21.1;;
79592;SDS011;69074;45.164;9.704;2024-01-27T04:39:10;23.6;;;21.1;;
79592;SDS011;69074;45.164;9.704;2024-01-27T04:41:40;23.6;;;21.1;;
79592;SDS011;69074;45.164;9.704;2024-01-27T04:44:01;23.6;;;21.1;;
79592;SDS011;69074;45.164;9.704;2024-01-27T04:46:26;23.6;;;21.1;;
79592;SDS011;69074;45.164;9.704;2024-01-27T04:48:51;23.6;;;21.1;;
79592;SDS011;69074;45.164;9.704;2024-01-27T04:51:16;24.3;;;21.7;;
79592;SDS011;69074;45.164;9.704;2024-01-27T04:53:41;24.3;;;21.7;;
79592;SDS011;69074;45.164;9.704;2024-01-27T04:56:06;24.3;;;21.7;;
79592;SDS011;69074;45.164;9.704;2024-01-27T04:58:31;24.3;;;21.7;;
79592;SDS011;69074;45.164;9.704;2024-01-27T05:00:56;24.3;;;21.7;;
79592;SDS011;69074;45.164;9.704;2024-01-27T05:03:21;24.3;;;21.7;;
79592;SDS011;69074;45.164;9.704;2024-01-27T05:05:46;22.3;;;20.0;;
79592;SDS011;69074;45.164;9.704;2024-01-27T05:08:11;22.3;;;20.0;;
79592;SDS011;69074;45.164;9.704;2024-01-27T05:10:36;22.3;;;20.0;;
79592;SDS011;69074;45.164;9.704;2024-01-27T05:13:01;22.3;;;20.0;;
79592;SDS011;69074;45.164;9.704;2024-01-27T05:15:26;22.3;;;20.0;;
79592;SDS011;69074;45.164;9.704;2024-01-27T05:17:51;22.3;;;20.0;;
79592;SDS011;69074;45.164;9.704;2024-01-27T05:20:16;22.0;;;19.7;;
79592;SDS011;69074;45.164;9.704;2024-01-27T05:22:41;22.0;;;19.7;;
79592;SDS011;69074;45.164;9.704;2024-01-27T05:25:06;22.0;;;19.7;;
79592;SDS011;69074;45.164;9.704;2024-01-27T05:27:31;22.0;;;19.7;;
79592;SDS011;69074;45.164;9.704;2024-01-27T05:29:56;22.0;;;19.7;;
79592;SDS011;69074;45.164;9.704;2024-01-27T05:32:21;22.0;;;19.7;;
79592;SDS011;69074;45.164;9.704;2024-01-27T05:34:46;22.0;;;19.7;;
79592;SDS011;69074;45.164;9.704;2024-01-27T05:37:11;20.8;;;18.6;;
79592;SDS011;69074;45.164;9.704;2024-01-27T05:39:36;20.8;;;18.6;;
79592;SDS011;69074;45.164;9.704;2024-01-27T05:42:01;20.8;;;18.6;;
79592;SDS011;69074;45.164;9.704;2024-01-27T05:44:26;20.8;;;18.6;;
79592;SDS011;69074;45.164;9.704;2024-01-27T05:46:51;20.8;;;18.6;;
79592;SDS011;69074;45.164;9.704;2024-01-27T05:49:16;20.8;;;18.6;;
79592;SDS011;69074;45.164;9.704;2024-01-27T05:51:41;21.1;;;18.9;;
79592;SDS011;69074;45.164;9.704;2024-01-27T05:54:06;21.1;;;18.9;;
79592;SDS011;69074;45.164;9.704;2024-01-27T05:56:31;21.1;;;18.9;;
79592;SDS011;69074;45.164;9.704;2024-01-27T05:58:56;21.1;;;18.9;;
79592;SDS011;69074;45.164;9.704;2024-01-27T06:01:21;21.1;;;18.9;;
79592;SDS011;69074;45.164;9.704;2024-01-27T06:03:46;21.1;;;18.9;;
79592;SDS011;69074;45.164;9.704;2024-01-27T06:06:11;19.7;;;17.6;;
79592;SDS011;69074;45.164;9.704;2024-01-27T06:08:36;19.7;;;17.6;;
79592;SDS011;69074;45.164;9.704;2024-01-27T06:11:01;19.7;;;17.6;;
79592;SDS011;69074;45.164;9.704;2024-01-27T06:13:26;19.7;;;17.6;;
79592;SDS011;69074;45.164;9.704;2024-01-27T06:15:51;19.7;;;17.6;;
79592;SDS011;69074;45.164;9.704;2024-01-27T06:18:16;19.7;;;17.6;;
79592;SDS011;69074;45.164;9.704;2024-01-27T06:20:41;20.5;;;18.0;;
79592;SDS011;69074;45.164;9.704;2024-01-27T06:23:06;20.5;;;18.0;;
79592;SDS011;69074;45.164;9.704;2024-01-27T06:25:31;20.5;;;18.0;;
79592;SDS011;69074;45.164;9.704;2024-01-27T06:27:56;20.5;;;18.0;;
79592;SDS011;69074;45.164;9.704;2024-01-27T06:30:21;20.5;;;18.0;;
79592;SDS011;69074;45.164;9.704;2024-01-27T06:32:46;20.5;;;18.0;;
79592;SDS011;69074;45.164;9.704;2024-01-27T06:35:11;21.9;;;19.4;;
79592;SDS011;69074;45.164;9.704;2024-01-27T06:37:36;21.9;;;19.4;;
79592;SDS011;69074;45.164;9.704;2024-01-27T06:40:01;21.9;;;19.4;;
79592;SDS011;69074;45.164;9.704;2024-01-27T06:42:26;21.9;;;19.4;;
79592;SDS011;69074;45.164;9.704;2024-01-27T06:44:51;21.9;;;19.4;;
79592;SDS011;69074;45.164;9.704;2024-01-27T06:47:16;21.9;;;19.4;;
79592;SDS011;69074;45.164;9.704;2024-01-27T06:49:41;21.9;;;19.4;;
79592;SDS011;69074;45.164;9.704;2024-01-27T06:52:06;23.4;;;19.3;;
79592;SDS011;69074;45.164;9.704;2024-01-27T06:54:31;23.4;;;19.3;;
79592;SDS011;69074;45.164;9.704;2024-01-27T06:56:56;23.4;;;19.3;;
79592;SDS011;69074;45.164;9.704;2024-01-27T06:59:21;23.4;;;19.3;;
79592;SDS011;69074;45.164;9.704;2024-01-27T07:01:46;23.4;;;19.3;;
79592;SDS011;69074;45.164;9.704;2024-01-27T07:04:11;23.4;;;19.3;;
79592;SDS011;69074;45.164;9.704;2024-01-27T07:06:36;22.4;;;18.8;;
79592;SDS011;69074;45.164;9.704;2024-01-27T07:09:01;22.4;;;18.8;;
79592;SDS011;69074;45.164;9.704;2024-01-27T07:11:26;22.4;;;18.8;;
79592;SDS011;69074;45.164;9.704;2024-01-27T07:13:51;22.4;;;18.8;;
79592;SDS011;69074;45.164;9.704;2024-01-27T07:16:16;22.4;;;18.8;;
79592;SDS011;69074;45.164;9.704;2024-01-27T07:18:41;22.4;;;18.8;;
79592;SDS011;69074;45.164;9.704;2024-01-27T07:21:06;21.3;;;17.9;;
79592;SDS011;69074;45.164;9.704;2024-01-27T07:23:31;21.3;;;17.9;;
79592;SDS011;69074;45.164;9.704;2024-01-27T07:25:56;21.3;;;17.9;;
79592;SDS011;69074;45.164;9.704;2024-01-27T07:28:21;21.3;;;17.9;;
79592;SDS011;69074;45.164;9.704;2024-01-27T07:30:46;21.3;;;17.9;;
79592;SDS011;69074;45.164;9.704;2024-01-27T07:33:11;21.3;;;17.9;;
79592;SDS011;69074;45.164;9.704;2024-01-27T07:35:36;20.6;;;18.0;;
79592;SDS011;69074;45.164;9.704;2024-01-27T07:38:01;20.6;;;18.0;;
79592;SDS011;69074;45.164;9.704;2024-01-27T07:40:26;20.6;;;18.0;;
79592;SDS011;69074;45.164;9.704;2024-01-27T07:42:51;20.6;;;18.0;;
79592;SDS011;69074;45.164;9.704;2024-01-27T07:45:16;20.6;;;18.0;;
79592;SDS011;69074;45.164;9.704;2024-01-27T07:47:41;20.6;;;18.0;;
79592;SDS011;69074;45.164;9.704;2024-01-27T07:50:06;20.9;;;16.3;;
79592;SDS011;69074;45.164;9.704;2024-01-27T07:52:31;20.9;;;16.3;;
79592;SDS011;69074;45.164;9.704;2024-01-27T07:54:56;20.9;;;16.3;;
79592;SDS011;69074;45.164;9.704;2024-01-27T07:57:21;20.9;;;16.3;;
79592;SDS011;69074;45.164;9.704;2024-01-27T07:59:46;20.9;;;16.3;;
79592;SDS011;69074;45.164;9.704;2024-01-27T08:02:11;20.9;;;16.3;;
79592;SDS011;69074;45.164;9.704;2024-01-27T08:04:37;20.9;;;16.3;;
79592;SDS011;69074;45.164;9.704;2024-01-27T08:07:01;20.5;;;16.4;;
79592;SDS011;69074;45.164;9.704;2024-01-27T08:09:26;20.5;;;16.4;;
79592;SDS011;69074;45.164;9.704;2024-01-27T08:11:51;20.5;;;16.4;;
79592;SDS011;69074;45.164;9.704;2024-01-27T08:14:16;20.5;;;16.4;;
79592;SDS011;69074;45.164;9.704;2024-01-27T08:16:41;20.5;;;16.4;;
79592;SDS011;69074;45.164;9.704;2024-01-27T08:19:06;20.5;;;16.4;;
79592;SDS011;69074;45.164;9.704;2024-01-27T08:21:31;21.4;;;16.5;;
79592;SDS011;69074;45.164;9.704;2024-01-27T08:23:56;21.4;;;16.5;;
79592;SDS011;69074;45.164;9.704;2024-01-27T08:26:21;21.4;;;16.5;;
79592;SDS011;69074;45.164;9.704;2024-01-27T08:28:46;21.4;;;16.5;;
79592;SDS011;69074;45.164;9.704;2024-01-27T08:31:11;21.4;;;16.5;;
79592;SDS011;69074;45.164;9.704;2024-01-27T08:33:36;21.4;;;16.5;;
79592;SDS011;69074;45.164;9.704;2024-01-27T08:36:01;20.2;;;16.1;;
79592;SDS011;69074;45.164;9.704;2024-01-27T08:38:26;20.2;;;16.1;;
79592;SDS011;69074;45.164;9.704;2024-01-27T08:40:51;20.2;;;16.1;;
79592;SDS011;69074;45.164;9.704;2024-01-27T08:43:16;20.2;;;16.1;;
79592;SDS011;69074;45.164;9.704;2024-01-27T08:45:41;20.2;;;16.1;;
79592;SDS011;69074;45.164;9.704;2024-01-27T08:48:07;20.2;;;16.1;;
79592;SDS011;69074;45.164;9.704;2024-01-27T08:50:31;18.8;;;15.8;;
79592;SDS011;69074;45.164;9.704;2024-01-27T08:52:56;18.8;;;15.8;;
79592;SDS011;69074;45.164;9.704;2024-01-27T08:55:22;18.8;;;15.8;;
79592;SDS011;69074;45.164;9.704;2024-01-27T08:57:46;18.8;;;15.8;;
79592;SDS011;69074;45.164;9.704;2024-01-27T09:00:12;18.8;;;15.8;;
79592;SDS011;69074;45.164;9.704;2024-01-27T09:02:36;18.8;;;15.8;;
79592;SDS011;69074;45.164;9.704;2024-01-27T09:05:01;17.0;;;15.1;;
79592;SDS011;69074;45.164;9.704;2024-01-27T09:07:27;17.0;;;15.1;;
79592;SDS011;69074;45.164;9.704;2024-01-27T09:09:51;17.0;;;15.1;;
79592;SDS011;69074;45.164;9.704;2024-01-27T09:12:17;17.0;;;15.1;;
79592;SDS011;69074;45.164;9.704;2024-01-27T09:14:42;17.0;;;15.1;;
79592;SDS011;69074;45.164;9.704;2024-01-27T09:17:07;17.0;;;15.1;;
79592;SDS011;69074;45.164;9.704;2024-01-27T09:19:32;17.0;;;15.1;;
79592;SDS011;69074;45.164;9.704;2024-01-27T09:21:57;16.8;;;14.9;;
79592;SDS011;69074;45.164;9.704;2024-01-27T09:24:22;16.8;;;14.9;;
79592;SDS011;69074;45.164;9.704;2024-01-27T09:26:47;16.8;;;14.9;;
79592;SDS011;69074;45.164;9.704;2024-01-27T09:29:12;16.8;;;14.9;;
79592;SDS011;69074;45.164;9.704;2024-01-27T09:31:37;16.8;;;14.9;;
79592;SDS011;69074;45.164;9.704;2024-01-27T09:34:02;16.8;;;14.9;;
79592;SDS011;69074;45.164;9.704;2024-01-27T09:36:27;16.8;;;15.0;;
79592;SDS011;69074;45.164;9.704;2024-01-27T09:38:52;16.8;;;15.0;;
79592;SDS011;69074;45.164;9.704;2024-01-27T09:41:17;16.8;;;15.0;;
79592;SDS011;69074;45.164;9.704;2024-01-27T09:43:42;16.8;;;15.0;;
79592;SDS011;69074;45.164;9.704;2024-01-27T09:46:07;16.8;;;15.0;;
79592;SDS011;69074;45.164;9.704;2024-01-27T09:48:32;16.8;;;15.0;;
79592;SDS011;69074;45.164;9.704;2024-01-27T09:50:58;18.4;;;15.3;;
79592;SDS011;69074;45.164;9.704;2024-01-27T09:53:22;18.4;;;15.3;;
79592;SDS011;69074;45.164;9.704;2024-01-27T09:55:47;18.4;;;15.3;;
79592;SDS011;69074;45.164;9.704;2024-01-27T09:58:12;18.4;;;15.3;;
79592;SDS011;69074;45.164;9.704;2024-01-27T10:00:37;18.4;;;15.3;;
79592;SDS011;69074;45.164;9.704;2024-01-27T10:03:02;18.4;;;15.3;;
79592;SDS011;69074;45.164;9.704;2024-01-27T10:05:27;19.1;;;16.3;;
79592;SDS011;69074;45.164;9.704;2024-01-27T10:07:52;19.1;;;16.3;;
79592;SDS011;69074;45.164;9.704;2024-01-27T10:10:17;19.1;;;16.3;;
79592;SDS011;69074;45.164;9.704;2024-01-27T10:12:42;19.1;;;16.3;;
79592;SDS011;69074;45.164;9.704;2024-01-27T10:15:17;19.1;;;16.3;;
79592;SDS011;69074;45.164;9.704;2024-01-27T10:17:32;19.1;;;16.3;;
79592;SDS011;69074;45.164;9.704;2024-01-27T10:20:00;18.6;;;15.5;;
79592;SDS011;69074;45.164;9.704;2024-01-27T10:22:22;18.6;;;15.5;;
79592;SDS011;69074;45.164;9.704;2024-01-27T10:24:47;18.6;;;15.5;;
79592;SDS011;69074;45.164;9.704;2024-01-27T10:27:12;18.6;;;15.5;;
79592;SDS011;69074;45.164;9.704;2024-01-27T10:29:37;18.6;;;15.5;;
79592;SDS011;69074;45.164;9.704;2024-01-27T10:32:09;18.6;;;15.5;;
79592;SDS011;69074;45.164;9.704;2024-01-27T10:34:27;18.6;;;15.5;;
79592;SDS011;69074;45.164;9.704;2024-01-27T10:36:52;20.1;;;16.7;;
79592;SDS011;69074;45.164;9.704;2024-01-27T10:39:17;20.1;;;16.7;;
79592;SDS011;69074;45.164;9.704;2024-01-27T10:41:43;20.1;;;16.7;;
79592;SDS011;69074;45.164;9.704;2024-01-27T10:44:07;20.1;;;16.7;;
79592;SDS011;69074;45.164;9.704;2024-01-27T10:46:32;20.1;;;16.7;;
79592;SDS011;69074;45.164;9.704;2024-01-27T10:48:57;20.1;;;16.7;;
79592;SDS011;69074;45.164;9.704;2024-01-27T10:51:22;19.5;;;15.9;;
79592;SDS011;69074;45.164;9.704;2024-01-27T10:53:47;19.5;;;15.9;;
79592;SDS011;69074;45.164;9.704;2024-01-27T10:56:12;19.5;;;15.9;;
79592;SDS011;69074;45.164;9.704;2024-01-27T10:58:37;19.5;;;15.9;;
79592;SDS011;69074;45.164;9.704;2024-01-27T11:01:02;19.5;;;15.9;;
79592;SDS011;69074;45.164;9.704;2024-01-27T11:03:27;19.5;;;15.9;;
79592;SDS011;69074;45.164;9.704;2024-01-27T11:05:52;24.8;;;22.0;;
79592;SDS011;69074;45.164;9.704;2024-01-27T11:08:17;24.8;;;22.0;;
79592;SDS011;69074;45.164;9.704;2024-01-27T11:10:42;24.8;;;22.0;;
79592;SDS011;69074;45.164;9.704;2024-01-27T11:13:07;24.8;;;22.0;;
79592;SDS011;69074;45.164;9.704;2024-01-27T11:15:32;24.8;;;22.0;;
79592;SDS011;69074;45.164;9.704;2024-01-27T11:17:57;24.8;;;22.0;;
79592;SDS011;69074;45.164;9.704;2024-01-27T11:20:22;86.1;;;54.4;;
79592;SDS011;69074;45.164;9.704;2024-01-27T11:22:47;86.1;;;54.4;;
79592;SDS011;69074;45.164;9.704;2024-01-27T11:25:14;86.1;;;54.4;;
79592;SDS011;69074;45.164;9.704;2024-01-27T11:27:38;86.1;;;54.4;;
79592;SDS011;69074;45.164;9.704;2024-01-27T11:30:02;86.1;;;54.4;;
79592;SDS011;69074;45.164;9.704;2024-01-27T11:32:27;86.1;;;54.4;;
79592;SDS011;69074;45.164;9.704;2024-01-27T11:34:52;86.1;;;54.4;;
79592;SDS011;69074;45.164;9.704;2024-01-27T11:37:17;203.4;;;135.7;;
79592;SDS011;69074;45.164;9.704;2024-01-27T11:39:42;203.4;;;135.7;;
79592;SDS011;69074;45.164;9.704;2024-01-27T11:42:08;203.4;;;135.7;;
79592;SDS011;69074;45.164;9.704;2024-01-27T11:44:33;203.4;;;135.7;;
79592;SDS011;69074;45.164;9.704;2024-01-27T11:46:57;203.4;;;135.7;;
79592;SDS011;69074;45.164;9.704;2024-01-27T11:49:22;203.4;;;135.7;;
79592;SDS011;69074;45.164;9.704;2024-01-27T11:51:47;214.9;;;144.3;;
79592;SDS011;69074;45.164;9.704;2024-01-27T11:54:12;214.9;;;144.3;;
79592;SDS011;69074;45.164;9.704;2024-01-27T11:56:37;214.9;;;144.3;;
79592;SDS011;69074;45.164;9.704;2024-01-27T11:59:02;214.9;;;144.3;;
79592;SDS011;69074;45.164;9.704;2024-01-27T12:01:27;214.9;;;144.3;;
79592;SDS011;69074;45.164;9.704;2024-01-27T12:03:52;214.9;;;144.3;;
79592;SDS011;69074;45.164;9.704;2024-01-27T12:06:17;191.1;;;137.9;;
79592;SDS011;69074;45.164;9.704;2024-01-27T12:08:42;191.1;;;137.9;;
79592;SDS011;69074;45.164;9.704;2024-01-27T12:11:07;191.1;;;137.9;;
79592;SDS011;69074;45.164;9.704;2024-01-27T12:13:32;191.1;;;137.9;;
79592;SDS011;69074;45.164;9.704;2024-01-27T12:15:57;191.1;;;137.9;;
79592;SDS011;69074;45.164;9.704;2024-01-27T12:18:22;191.1;;;137.9;;
79592;SDS011;69074;45.164;9.704;2024-01-27T12:20:47;188.0;;;137.9;;
79592;SDS011;69074;45.164;9.704;2024-01-27T12:23:12;188.0;;;137.9;;
79592;SDS011;69074;45.164;9.704;2024-01-27T12:25:37;188.0;;;137.9;;
79592;SDS011;69074;45.164;9.704;2024-01-27T12:28:02;188.0;;;137.9;;
79592;SDS011;69074;45.164;9.704;2024-01-27T12:30:27;188.0;;;137.9;;
79592;SDS011;69074;45.164;9.704;2024-01-27T12:32:52;188.0;;;137.9;;
79592;SDS011;69074;45.164;9.704;2024-01-27T12:35:17;178.6;;;130.8;;
79592;SDS011;69074;45.164;9.704;2024-01-27T12:37:43;178.6;;;130.8;;
79592;SDS011;69074;45.164;9.704;2024-01-27T12:40:16;178.6;;;130.8;;
79592;SDS011;69074;45.164;9.704;2024-01-27T12:42:32;178.6;;;130.8;;
79592;SDS011;69074;45.164;9.704;2024-01-27T12:44:57;178.6;;;130.8;;
79592;SDS011;69074;45.164;9.704;2024-01-27T12:47:22;178.6;;;130.8;;
79592;SDS011;69074;45.164;9.704;2024-01-27T12:49:47;178.6;;;130.8;;
79592;SDS011;69074;45.164;9.704;2024-01-27T12:52:13;169.4;;;128.5;;
79592;SDS011;69074;45.164;9.704;2024-01-27T12:54:37;169.4;;;128.5;;
79592;SDS011;69074;45.164;9.704;2024-01-27T12:57:03;169.4;;;128.5;;
79592;SDS011;69074;45.164;9.704;2024-01-27T12:59:28;169.4;;;128.5;;
79592;SDS011;69074;45.164;9.704;2024-01-27T13:01:53;169.4;;;128.5;;
79592;SDS011;69074;45.164;9.704;2024-01-27T13:04:18;169.4;;;128.5;;
79592;SDS011;69074;45.164;9.704;2024-01-27T13:06:43;162.1;;;126.2;;
79592;SDS011;69074;45.164;9.704;2024-01-27T13:09:08;162.1;;;126.2;;
79592;SDS011;69074;45.164;9.704;2024-01-27T13:11:33;162.1;;;126.2;;
79592;SDS011;69074;45.164;9.704;2024-01-27T13:13:58;162.1;;;126.2;;
79592;SDS011;69074;45.164;9.704;2024-01-27T13:16:23;162.1;;;126.2;;
79592;SDS011;69074;45.164;9.704;2024-01-27T13:18:48;162.1;;;126.2;;
79592;SDS011;69074;45.164;9.704;2024-01-27T13:21:13;148.6;;;119.1;;
79592;SDS011;69074;45.164;9.704;2024-01-27T13:23:38;148.6;;;119.1;;
79592;SDS011;69074;45.164;9.704;2024-01-27T13:26:03;148.6;;;119.1;;
79592;SDS011;69074;45.164;9.704;2024-01-27T13:28:28;148.6;;;119.1;;
79592;SDS011;69074;45.164;9.704;2024-01-27T13:30:53;148.6;;;119.1;;
79592;SDS011;69074;45.164;9.704;2024-01-27T13:33:18;148.6;;;119.1;;
79592;SDS011;69074;45.164;9.704;2024-01-27T13:35:43;140.2;;;112.9;;
79592;SDS011;69074;45.164;9.704;2024-01-27T13:38:08;140.2;;;112.9;;
79592;SDS011;69074;45.164;9.704;2024-01-27T13:40:33;140.2;;;112.9;;
79592;SDS011;69074;45.164;9.704;2024-01-27T13:42:58;140.2;;;112.9;;
79592;SDS011;69074;45.164;9.704;2024-01-27T13:45:23;140.2;;;112.9;;
79592;SDS011;69074;45.164;9.704;2024-01-27T13:47:48;140.2;;;112.9;;
79592;SDS011;69074;45.164;9.704;2024-01-27T13:50:13;139.1;;;110.2;;
79592;SDS011;69074;45.164;9.704;2024-01-27T13:52:38;139.1;;;110.2;;
79592;SDS011;69074;45.164;9.704;2024-01-27T13:55:03;139.1;;;110.2;;
79592;SDS011;69074;45.164;9.704;2024-01-27T13:57:28;139.1;;;110.2;;
79592;SDS011;69074;45.164;9.704;2024-01-27T13:59:53;139.1;;;110.2;;
79592;SDS011;69074;45.164;9.704;2024-01-27T14:02:18;139.1;;;110.2;;
79592;SDS011;69074;45.164;9.704;2024-01-27T14:04:43;139.1;;;110.2;;
79592;SDS011;69074;45.164;9.704;2024-01-27T14:07:08;128.3;;;104.4;;
79592;SDS011;69074;45.164;9.704;2024-01-27T14:09:33;128.3;;;104.4;;
79592;SDS011;69074;45.164;9.704;2024-01-27T14:11:58;128.3;;;104.4;;
79592;SDS011;69074;45.164;9.704;2024-01-27T14:14:23;128.3;;;104.4;;
79592;SDS011;69074;45.164;9.704;2024-01-27T14:16:48;128.3;;;104.4;;
79592;SDS011;69074;45.164;9.704;2024-01-27T14:19:13;128.3;;;104.4;;
79592;SDS011;69074;45.164;9.704;2024-01-27T14:21:38;121.6;;;97.7;;
79592;SDS011;69074;45.164;9.704;2024-01-27T14:24:03;121.6;;;97.7;;
79592;SDS011;69074;45.164;9.704;2024-01-27T14:26:28;121.6;;;97.7;;
79592;SDS011;69074;45.164;9.704;2024-01-27T14:28:53;121.6;;;97.7;;